Terminal Aerodrome Forecast
Issued by NWS Charleston, WV

Current Version | Previous Version | Graphics & Text | Print | Product List | Glossary On
Versions: 1 2 3 4 5 6 7 8 9 10 11 12 13 14 15 16 17 18 19 20 21 22 23 24
000
FTUS41 KRLX 281740
TAFHTS
TAF
KHTS 281740Z 2818/2918 22007KT P6SM BKN050
     FM282300 VRB03KT P6SM VCSH BKN035 OVC090
     FM290500 00000KT 6SM BR BKN050
     FM291400 00000KT P6SM BKN050
     FM291600 00000KT P6SM VCTS BKN050CB=

USA.gov is the U.S. government's official web portal to all federal, state and local government web resources and services.